sensor_id;sensor_type;location;lat;lon;timestamp;P1;durP1;ratioP1;P2;durP2;ratioP2
41167;SDS011;26906;45.658;9.272;2023-07-29T06:41:40;4.97;;;2.60;;
41167;SDS011;26906;45.658;9.272;2023-07-29T06:44:06;5.95;;;2.70;;
41167;SDS011;26906;45.658;9.272;2023-07-29T06:46:32;7.68;;;2.75;;
41167;SDS011;26906;45.658;9.272;2023-07-29T06:48:57;8.23;;;2.70;;
41167;SDS011;26906;45.658;9.272;2023-07-29T06:51:23;4.28;;;2.38;;
41167;SDS011;26906;45.658;9.272;2023-07-29T06:53:49;7.43;;;2.65;;
41167;SDS011;26906;45.658;9.272;2023-07-29T06:56:14;5.78;;;2.75;;
41167;SDS011;26906;45.658;9.272;2023-07-29T06:58:40;6.65;;;3.15;;
41167;SDS011;26906;45.658;9.272;2023-07-29T07:01:06;7.15;;;2.80;;
41167;SDS011;26906;45.658;9.272;2023-07-29T07:03:31;8.23;;;2.92;;
41167;SDS011;26906;45.658;9.272;2023-07-29T07:05:57;7.05;;;2.72;;
41167;SDS011;26906;45.658;9.272;2023-07-29T07:08:24;5.82;;;2.78;;
41167;SDS011;26906;45.658;9.272;2023-07-29T07:10:49;6.57;;;2.78;;
41167;SDS011;26906;45.658;9.272;2023-07-29T07:13:15;5.45;;;2.60;;
41167;SDS011;26906;45.658;9.272;2023-07-29T07:15:41;4.18;;;2.47;;
41167;SDS011;26906;45.658;9.272;2023-07-29T07:18:06;7.57;;;2.70;;
41167;SDS011;26906;45.658;9.272;2023-07-29T07:20:32;6.30;;;2.63;;
41167;SDS011;26906;45.658;9.272;2023-07-29T07:22:58;7.78;;;2.83;;
41167;SDS011;26906;45.658;9.272;2023-07-29T07:25:23;3.95;;;2.42;;
41167;SDS011;26906;45.658;9.272;2023-07-29T07:27:49;4.38;;;2.30;;
41167;SDS011;26906;45.658;9.272;2023-07-29T07:30:14;8.23;;;3.00;;
41167;SDS011;26906;45.658;9.272;2023-07-29T07:32:40;6.28;;;2.45;;
41167;SDS011;26906;45.658;9.272;2023-07-29T07:35:06;7.95;;;2.65;;
41167;SDS011;26906;45.658;9.272;2023-07-29T07:37:32;7.15;;;2.75;;
41167;SDS011;26906;45.658;9.272;2023-07-29T07:39:57;5.22;;;2.50;;
41167;SDS011;26906;45.658;9.272;2023-07-29T07:42:23;6.47;;;2.63;;
41167;SDS011;26906;45.658;9.272;2023-07-29T07:44:49;6.70;;;2.70;;
41167;SDS011;26906;45.658;9.272;2023-07-29T07:47:14;4.22;;;2.30;;
41167;SDS011;26906;45.658;9.272;2023-07-29T07:49:40;8.20;;;2.55;;
41167;SDS011;26906;45.658;9.272;2023-07-29T07:52:06;4.28;;;2.72;;
41167;SDS011;26906;45.658;9.272;2023-07-29T07:54:32;5.95;;;2.40;;
41167;SDS011;26906;45.658;9.272;2023-07-29T07:56:57;4.55;;;2.58;;
41167;SDS011;26906;45.658;9.272;2023-07-29T07:59:23;6.22;;;2.30;;
41167;SDS011;26906;45.658;9.272;2023-07-29T08:01:48;7.03;;;2.63;;
41167;SDS011;26906;45.658;9.272;2023-07-29T08:04:14;4.53;;;2.60;;
41167;SDS011;26906;45.658;9.272;2023-07-29T08:06:40;5.43;;;2.35;;
41167;SDS011;26906;45.658;9.272;2023-07-29T08:09:05;6.72;;;2.40;;
41167;SDS011;26906;45.658;9.272;2023-07-29T08:11:31;4.38;;;2.47;;
41167;SDS011;26906;45.658;9.272;2023-07-29T08:13:58;4.30;;;2.38;;
41167;SDS011;26906;45.658;9.272;2023-07-29T08:16:23;5.85;;;2.90;;
41167;SDS011;26906;45.658;9.272;2023-07-29T08:18:49;4.10;;;2.22;;
41167;SDS011;26906;45.658;9.272;2023-07-29T08:21:15;3.67;;;2.25;;
41167;SDS011;26906;45.658;9.272;2023-07-29T08:23:40;3.13;;;2.05;;
41167;SDS011;26906;45.658;9.272;2023-07-29T08:26:06;5.07;;;2.40;;
41167;SDS011;26906;45.658;9.272;2023-07-29T08:28:32;4.40;;;2.50;;
41167;SDS011;26906;45.658;9.272;2023-07-29T08:30:59;5.22;;;2.67;;
41167;SDS011;26906;45.658;9.272;2023-07-29T08:33:25;7.47;;;2.40;;
41167;SDS011;26906;45.658;9.272;2023-07-29T08:35:51;4.45;;;2.08;;
41167;SDS011;26906;45.658;9.272;2023-07-29T08:38:17;5.28;;;2.38;;
41167;SDS011;26906;45.658;9.272;2023-07-29T08:40:45;5.43;;;2.28;;
41167;SDS011;26906;45.658;9.272;2023-07-29T08:43:14;7.22;;;3.10;;
41167;SDS011;26906;45.658;9.272;2023-07-29T08:45:43;3.55;;;2.20;;
41167;SDS011;26906;45.658;9.272;2023-07-29T08:48:10;5.35;;;2.88;;
41167;SDS011;26906;45.658;9.272;2023-07-29T08:50:37;4.95;;;2.65;;
41167;SDS011;26906;45.658;9.272;2023-07-29T08:53:04;6.88;;;2.40;;
41167;SDS011;26906;45.658;9.272;2023-07-29T08:55:33;6.47;;;2.88;;
41167;SDS011;26906;45.658;9.272;2023-07-29T08:57:59;7.03;;;2.67;;
41167;SDS011;26906;45.658;9.272;2023-07-29T09:00:34;4.95;;;2.63;;
41167;SDS011;26906;45.658;9.272;2023-07-29T09:03:00;4.22;;;2.60;;
41167;SDS011;26906;45.658;9.272;2023-07-29T09:05:32;9.07;;;3.22;;
41167;SDS011;26906;45.658;9.272;2023-07-29T09:07:58;5.82;;;2.58;;
41167;SDS011;26906;45.658;9.272;2023-07-29T09:10:25;7.68;;;2.63;;
41167;SDS011;26906;45.658;9.272;2023-07-29T09:12:52;4.30;;;2.60;;
41167;SDS011;26906;45.658;9.272;2023-07-29T09:15:28;7.78;;;2.78;;
41167;SDS011;26906;45.658;9.272;2023-07-29T09:17:55;5.82;;;2.50;;
41167;SDS011;26906;45.658;9.272;2023-07-29T09:20:28;5.88;;;2.63;;
41167;SDS011;26906;45.658;9.272;2023-07-29T09:22:54;7.70;;;2.70;;
41167;SDS011;26906;45.658;9.272;2023-07-29T09:25:26;5.70;;;2.72;;
41167;SDS011;26906;45.658;9.272;2023-07-29T09:27:55;4.72;;;2.80;;
41167;SDS011;26906;45.658;9.272;2023-07-29T09:30:25;5.85;;;2.92;;
41167;SDS011;26906;45.658;9.272;2023-07-29T09:32:54;6.82;;;2.20;;
41167;SDS011;26906;45.658;9.272;2023-07-29T09:35:24;5.13;;;2.75;;
41167;SDS011;26906;45.658;9.272;2023-07-29T09:37:52;5.07;;;2.72;;
41167;SDS011;26906;45.658;9.272;2023-07-29T09:40:18;7.25;;;2.53;;
41167;SDS011;26906;45.658;9.272;2023-07-29T09:42:50;3.75;;;2.53;;
41167;SDS011;26906;45.658;9.272;2023-07-29T09:45:21;4.30;;;2.50;;
41167;SDS011;26906;45.658;9.272;2023-07-29T09:47:48;8.00;;;2.80;;
41167;SDS011;26906;45.658;9.272;2023-07-29T09:50:15;4.88;;;2.90;;
41167;SDS011;26906;45.658;9.272;2023-07-29T09:52:42;9.18;;;2.70;;
41167;SDS011;26906;45.658;9.272;2023-07-29T09:55:12;6.85;;;2.67;;
41167;SDS011;26906;45.658;9.272;2023-07-29T09:57:42;5.55;;;2.60;;
41167;SDS011;26906;45.658;9.272;2023-07-29T10:00:10;7.07;;;2.70;;
41167;SDS011;26906;45.658;9.272;2023-07-29T10:02:37;7.50;;;2.60;;
41167;SDS011;26906;45.658;9.272;2023-07-29T10:05:07;5.45;;;2.33;;
41167;SDS011;26906;45.658;9.272;2023-07-29T10:07:35;3.25;;;2.50;;
41167;SDS011;26906;45.658;9.272;2023-07-29T10:10:06;8.23;;;3.15;;
41167;SDS011;26906;45.658;9.272;2023-07-29T10:12:34;8.68;;;3.30;;
41167;SDS011;26906;45.658;9.272;2023-07-29T10:15:02;10.27;;;4.50;;
41167;SDS011;26906;45.658;9.272;2023-07-29T10:17:29;10.50;;;3.75;;
41167;SDS011;26906;45.658;9.272;2023-07-29T10:19:56;6.05;;;2.72;;
41167;SDS011;26906;45.658;9.272;2023-07-29T10:22:24;5.07;;;2.80;;
41167;SDS011;26906;45.658;9.272;2023-07-29T10:24:53;5.03;;;2.50;;
41167;SDS011;26906;45.658;9.272;2023-07-29T10:27:23;7.43;;;3.00;;
41167;SDS011;26906;45.658;9.272;2023-07-29T10:29:50;6.97;;;2.92;;
41167;SDS011;26906;45.658;9.272;2023-07-29T10:32:17;5.80;;;2.92;;
41167;SDS011;26906;45.658;9.272;2023-07-29T10:34:44;5.43;;;2.90;;
41167;SDS011;26906;45.658;9.272;2023-07-29T10:37:10;5.40;;;2.53;;
41167;SDS011;26906;45.658;9.272;2023-07-29T10:39:39;5.13;;;2.85;;
41167;SDS011;26906;45.658;9.272;2023-07-29T10:42:06;4.68;;;2.53;;
41167;SDS011;26906;45.658;9.272;2023-07-29T10:47:11;5.85;;;2.85;;
41167;SDS011;26906;45.658;9.272;2023-07-29T10:49:44;3.83;;;2.90;;
41167;SDS011;26906;45.658;9.272;2023-07-29T10:52:14;5.50;;;3.03;;
41167;SDS011;26906;45.658;9.272;2023-07-29T10:54:44;5.35;;;2.63;;
41167;SDS011;26906;45.658;9.272;2023-07-29T10:57:30;5.18;;;2.70;;
41167;SDS011;26906;45.658;9.272;2023-07-29T11:00:00;6.38;;;2.75;;
41167;SDS011;26906;45.658;9.272;2023-07-29T11:02:30;8.55;;;2.85;;
41167;SDS011;26906;45.658;9.272;2023-07-29T11:05:06;4.13;;;2.72;;
41167;SDS011;26906;45.658;9.272;2023-07-29T11:07:48;4.53;;;2.60;;
41167;SDS011;26906;45.658;9.272;2023-07-29T11:10:14;4.97;;;2.80;;
41167;SDS011;26906;45.658;9.272;2023-07-29T11:12:48;5.57;;;2.83;;
41167;SDS011;26906;45.658;9.272;2023-07-29T11:17:48;7.28;;;2.70;;
41167;SDS011;26906;45.658;9.272;2023-07-29T11:20:22;4.80;;;2.72;;
41167;SDS011;26906;45.658;9.272;2023-07-29T11:22:56;8.57;;;3.20;;
41167;SDS011;26906;45.658;9.272;2023-07-29T11:25:31;5.22;;;2.88;;
41167;SDS011;26906;45.658;9.272;2023-07-29T11:28:01;6.63;;;3.22;;
41167;SDS011;26906;45.658;9.272;2023-07-29T11:30:26;7.32;;;3.08;;
41167;SDS011;26906;45.658;9.272;2023-07-29T11:32:54;5.38;;;3.13;;
41167;SDS011;26906;45.658;9.272;2023-07-29T11:35:21;8.27;;;3.10;;
41167;SDS011;26906;45.658;9.272;2023-07-29T11:37:47;5.43;;;2.95;;
41167;SDS011;26906;45.658;9.272;2023-07-29T11:40:15;4.88;;;2.95;;
41167;SDS011;26906;45.658;9.272;2023-07-29T11:42:41;7.30;;;3.10;;
41167;SDS011;26906;45.658;9.272;2023-07-29T11:45:07;5.90;;;3.50;;
41167;SDS011;26906;45.658;9.272;2023-07-29T11:47:35;9.00;;;3.30;;
41167;SDS011;26906;45.658;9.272;2023-07-29T11:50:05;5.15;;;3.22;;
41167;SDS011;26906;45.658;9.272;2023-07-29T11:52:39;7.57;;;3.30;;
41167;SDS011;26906;45.658;9.272;2023-07-29T11:55:06;8.52;;;3.22;;
41167;SDS011;26906;45.658;9.272;2023-07-29T11:57:34;4.28;;;2.80;;
41167;SDS011;26906;45.658;9.272;2023-07-29T12:00:05;6.70;;;3.10;;
41167;SDS011;26906;45.658;9.272;2023-07-29T12:02:36;5.32;;;2.58;;
41167;SDS011;26906;45.658;9.272;2023-07-29T12:05:07;5.50;;;2.63;;
41167;SDS011;26906;45.658;9.272;2023-07-29T12:07:34;5.53;;;2.83;;
41167;SDS011;26906;45.658;9.272;2023-07-29T12:10:01;6.85;;;3.13;;
41167;SDS011;26906;45.658;9.272;2023-07-29T12:12:28;4.10;;;2.58;;
41167;SDS011;26906;45.658;9.272;2023-07-29T12:14:55;4.63;;;3.08;;
41167;SDS011;26906;45.658;9.272;2023-07-29T12:17:20;5.57;;;3.10;;
41167;SDS011;26906;45.658;9.272;2023-07-29T12:19:46;6.10;;;2.88;;
41167;SDS011;26906;45.658;9.272;2023-07-29T12:22:17;5.50;;;2.83;;
41167;SDS011;26906;45.658;9.272;2023-07-29T12:24:44;5.40;;;2.88;;
41167;SDS011;26906;45.658;9.272;2023-07-29T12:27:13;5.68;;;3.00;;
41167;SDS011;26906;45.658;9.272;2023-07-29T12:29:41;5.90;;;2.80;;
41167;SDS011;26906;45.658;9.272;2023-07-29T12:32:08;6.20;;;2.85;;
41167;SDS011;26906;45.658;9.272;2023-07-29T12:34:34;6.25;;;3.10;;
41167;SDS011;26906;45.658;9.272;2023-07-29T12:37:02;6.18;;;2.95;;
41167;SDS011;26906;45.658;9.272;2023-07-29T12:39:29;6.68;;;3.22;;
41167;SDS011;26906;45.658;9.272;2023-07-29T12:41:58;4.88;;;2.97;;
41167;SDS011;26906;45.658;9.272;2023-07-29T12:44:25;7.97;;;3.10;;
41167;SDS011;26906;45.658;9.272;2023-07-29T12:46:54;5.15;;;3.10;;
41167;SDS011;26906;45.658;9.272;2023-07-29T12:49:20;6.30;;;3.00;;
41167;SDS011;26906;45.658;9.272;2023-07-29T12:51:46;5.75;;;2.70;;
41167;SDS011;26906;45.658;9.272;2023-07-29T12:54:11;4.70;;;2.90;;
41167;SDS011;26906;45.658;9.272;2023-07-29T12:56:37;4.70;;;3.20;;
41167;SDS011;26906;45.658;9.272;2023-07-29T12:59:03;4.68;;;2.92;;
41167;SDS011;26906;45.658;9.272;2023-07-29T13:01:30;7.30;;;3.50;;
41167;SDS011;26906;45.658;9.272;2023-07-29T13:03:55;7.22;;;2.85;;
41167;SDS011;26906;45.658;9.272;2023-07-29T13:06:21;5.97;;;3.13;;
41167;SDS011;26906;45.658;9.272;2023-07-29T13:08:48;4.30;;;2.90;;
41167;SDS011;26906;45.658;9.272;2023-07-29T13:11:15;5.07;;;2.90;;
41167;SDS011;26906;45.658;9.272;2023-07-29T13:13:41;5.50;;;3.10;;
41167;SDS011;26906;45.658;9.272;2023-07-29T13:16:07;6.05;;;2.97;;
41167;SDS011;26906;45.658;9.272;2023-07-29T13:18:35;6.53;;;2.42;;
41167;SDS011;26906;45.658;9.272;2023-07-29T13:21:00;7.80;;;2.95;;
41167;SDS011;26906;45.658;9.272;2023-07-29T13:23:26;6.47;;;2.85;;
41167;SDS011;26906;45.658;9.272;2023-07-29T13:25:56;6.45;;;2.80;;
41167;SDS011;26906;45.658;9.272;2023-07-29T13:28:22;5.57;;;2.97;;
41167;SDS011;26906;45.658;9.272;2023-07-29T13:30:48;5.50;;;2.50;;
41167;SDS011;26906;45.658;9.272;2023-07-29T13:33:14;4.28;;;2.70;;
41167;SDS011;26906;45.658;9.272;2023-07-29T13:35:40;8.23;;;3.03;;
41167;SDS011;26906;45.658;9.272;2023-07-29T13:38:06;4.13;;;2.80;;
41167;SDS011;26906;45.658;9.272;2023-07-29T13:40:31;4.07;;;2.65;;
41167;SDS011;26906;45.658;9.272;2023-07-29T13:42:57;4.50;;;2.70;;
41167;SDS011;26906;45.658;9.272;2023-07-29T13:45:23;4.43;;;2.70;;
41167;SDS011;26906;45.658;9.272;2023-07-29T13:47:49;5.25;;;2.97;;
41167;SDS011;26906;45.658;9.272;2023-07-29T13:50:15;5.32;;;2.95;;
41167;SDS011;26906;45.658;9.272;2023-07-29T13:52:41;5.78;;;2.63;;
41167;SDS011;26906;45.658;9.272;2023-07-29T13:55:07;4.72;;;2.78;;
41167;SDS011;26906;45.658;9.272;2023-07-29T13:57:33;6.85;;;3.00;;
41167;SDS011;26906;45.658;9.272;2023-07-29T13:59:59;6.25;;;2.80;;
41167;SDS011;26906;45.658;9.272;2023-07-29T14:02:24;6.45;;;3.20;;
41167;SDS011;26906;45.658;9.272;2023-07-29T14:04:54;4.38;;;2.90;;
41167;SDS011;26906;45.658;9.272;2023-07-29T14:07:19;4.43;;;2.75;;
41167;SDS011;26906;45.658;9.272;2023-07-29T14:09:45;6.70;;;2.92;;
41167;SDS011;26906;45.658;9.272;2023-07-29T14:12:12;4.10;;;2.72;;
41167;SDS011;26906;45.658;9.272;2023-07-29T14:14:39;6.20;;;3.20;;
41167;SDS011;26906;45.658;9.272;2023-07-29T14:17:05;6.47;;;2.80;;
41167;SDS011;26906;45.658;9.272;2023-07-29T14:19:34;7.50;;;3.20;;
41167;SDS011;26906;45.658;9.272;2023-07-29T14:21:59;5.30;;;2.88;;
41167;SDS011;26906;45.658;9.272;2023-07-29T14:24:25;4.13;;;2.72;;
41167;SDS011;26906;45.658;9.272;2023-07-29T14:26:51;5.47;;;2.95;;
41167;SDS011;26906;45.658;9.272;2023-07-29T14:29:17;4.88;;;3.15;;
41167;SDS011;26906;45.658;9.272;2023-07-29T14:31:43;3.80;;;2.80;;
41167;SDS011;26906;45.658;9.272;2023-07-29T14:34:09;5.28;;;2.90;;
41167;SDS011;26906;45.658;9.272;2023-07-29T14:36:35;4.93;;;2.83;;
41167;SDS011;26906;45.658;9.272;2023-07-29T14:39:01;6.28;;;3.03;;
41167;SDS011;26906;45.658;9.272;2023-07-29T14:41:27;6.03;;;2.92;;
41167;SDS011;26906;45.658;9.272;2023-07-29T14:43:53;5.32;;;2.90;;
41167;SDS011;26906;45.658;9.272;2023-07-29T14:46:18;5.65;;;3.17;;
41167;SDS011;26906;45.658;9.272;2023-07-29T14:48:44;5.35;;;2.92;;
41167;SDS011;26906;45.658;9.272;2023-07-29T14:51:12;4.95;;;2.60;;
41167;SDS011;26906;45.658;9.272;2023-07-29T14:53:38;5.80;;;2.92;;
41167;SDS011;26906;45.658;9.272;2023-07-29T14:56:03;6.70;;;2.75;;
41167;SDS011;26906;45.658;9.272;2023-07-29T14:58:29;5.55;;;2.80;;
41167;SDS011;26906;45.658;9.272;2023-07-29T15:00:55;4.28;;;2.83;;
41167;SDS011;26906;45.658;9.272;2023-07-29T15:03:21;5.90;;;3.33;;
41167;SDS011;26906;45.658;9.272;2023-07-29T15:05:46;7.03;;;3.50;;
41167;SDS011;26906;45.658;9.272;2023-07-29T15:08:12;3.92;;;2.80;;
41167;SDS011;26906;45.658;9.272;2023-07-29T15:10:38;6.72;;;3.10;;
41167;SDS011;26906;45.658;9.272;2023-07-29T15:13:04;5.38;;;3.25;;
41167;SDS011;26906;45.658;9.272;2023-07-29T15:15:29;7.93;;;2.90;;
41167;SDS011;26906;45.658;9.272;2023-07-29T15:17:55;4.28;;;3.08;;
41167;SDS011;26906;45.658;9.272;2023-07-29T15:20:30;7.93;;;2.97;;
41167;SDS011;26906;45.658;9.272;2023-07-29T15:22:55;4.38;;;3.00;;
41167;SDS011;26906;45.658;9.272;2023-07-29T15:25:21;4.60;;;3.05;;
41167;SDS011;26906;45.658;9.272;2023-07-29T15:27:48;4.18;;;2.95;;
41167;SDS011;26906;45.658;9.272;2023-07-29T15:30:13;5.82;;;3.10;;
41167;SDS011;26906;45.658;9.272;2023-07-29T15:32:40;7.20;;;3.15;;
41167;SDS011;26906;45.658;9.272;2023-07-29T15:35:07;4.05;;;3.05;;
41167;SDS011;26906;45.658;9.272;2023-07-29T15:37:34;5.00;;;3.10;;
41167;SDS011;26906;45.658;9.272;2023-07-29T15:40:00;8.80;;;3.10;;
41167;SDS011;26906;45.658;9.272;2023-07-29T15:42:27;9.05;;;3.08;;
41167;SDS011;26906;45.658;9.272;2023-07-29T15:44:54;5.45;;;3.25;;
41167;SDS011;26906;45.658;9.272;2023-07-29T15:47:19;7.60;;;3.97;;
41167;SDS011;26906;45.658;9.272;2023-07-29T15:49:45;8.32;;;3.03;;
41167;SDS011;26906;45.658;9.272;2023-07-29T15:52:12;6.35;;;3.00;;
41167;SDS011;26906;45.658;9.272;2023-07-29T15:54:41;5.10;;;2.95;;
41167;SDS011;26906;45.658;9.272;2023-07-29T15:57:08;4.95;;;3.13;;
41167;SDS011;26906;45.658;9.272;2023-07-29T15:59:34;4.20;;;3.00;;
41167;SDS011;26906;45.658;9.272;2023-07-29T16:02:00;5.60;;;3.15;;
41167;SDS011;26906;45.658;9.272;2023-07-29T16:04:26;6.75;;;3.10;;
41167;SDS011;26906;45.658;9.272;2023-07-29T16:06:52;7.88;;;2.92;;
41167;SDS011;26906;45.658;9.272;2023-07-29T16:09:19;8.00;;;3.95;;
41167;SDS011;26906;45.658;9.272;2023-07-29T16:11:47;4.88;;;3.10;;
41167;SDS011;26906;45.658;9.272;2023-07-29T16:14:13;7.63;;;3.20;;
41167;SDS011;26906;45.658;9.272;2023-07-29T16:16:39;9.25;;;3.38;;
41167;SDS011;26906;45.658;9.272;2023-07-29T16:19:05;9.63;;;3.22;;
41167;SDS011;26906;45.658;9.272;2023-07-29T16:21:31;9.27;;;2.92;;
41167;SDS011;26906;45.658;9.272;2023-07-29T16:23:57;5.18;;;3.15;;
41167;SDS011;26906;45.658;9.272;2023-07-29T16:26:23;7.07;;;3.17;;
41167;SDS011;26906;45.658;9.272;2023-07-29T16:28:49;7.18;;;3.00;;
41167;SDS011;26906;45.658;9.272;2023-07-29T16:31:14;8.55;;;2.97;;
41167;SDS011;26906;45.658;9.272;2023-07-29T16:33:40;4.25;;;2.80;;
41167;SDS011;26906;45.658;9.272;2023-07-29T16:36:06;4.68;;;3.00;;
41167;SDS011;26906;45.658;9.272;2023-07-29T16:38:32;4.38;;;2.70;;
41167;SDS011;26906;45.658;9.272;2023-07-29T16:40:57;7.57;;;3.10;;
41167;SDS011;26906;45.658;9.272;2023-07-29T16:43:23;6.63;;;2.95;;
41167;SDS011;26906;45.658;9.272;2023-07-29T16:45:49;8.35;;;3.58;;
41167;SDS011;26906;45.658;9.272;2023-07-29T16:48:14;6.90;;;3.08;;
41167;SDS011;26906;45.658;9.272;2023-07-29T16:50:41;5.28;;;3.20;;
41167;SDS011;26906;45.658;9.272;2023-07-29T16:53:06;7.20;;;3.08;;
41167;SDS011;26906;45.658;9.272;2023-07-29T16:55:32;6.43;;;3.00;;
41167;SDS011;26906;45.658;9.272;2023-07-29T16:57:58;4.15;;;3.20;;
41167;SDS011;26906;45.658;9.272;2023-07-29T17:00:23;6.68;;;3.10;;
41167;SDS011;26906;45.658;9.272;2023-07-29T17:02:49;8.32;;;3.45;;
41167;SDS011;26906;45.658;9.272;2023-07-29T17:05:15;5.07;;;3.10;;
41167;SDS011;26906;45.658;9.272;2023-07-29T17:07:40;6.32;;;2.97;;
41167;SDS011;26906;45.658;9.272;2023-07-29T17:10:06;7.32;;;2.80;;
41167;SDS011;26906;45.658;9.272;2023-07-29T17:12:32;8.20;;;3.40;;
41167;SDS011;26906;45.658;9.272;2023-07-29T17:14:58;9.00;;;3.00;;
41167;SDS011;26906;45.658;9.272;2023-07-29T17:17:25;5.25;;;3.20;;
41167;SDS011;26906;45.658;9.272;2023-07-29T17:19:51;5.03;;;3.28;;
41167;SDS011;26906;45.658;9.272;2023-07-29T17:22:16;4.90;;;2.78;;
41167;SDS011;26906;45.658;9.272;2023-07-29T17:24:42;5.10;;;3.20;;
41167;SDS011;26906;45.658;9.272;2023-07-29T17:27:08;3.03;;;2.47;;
41167;SDS011;26906;45.658;9.272;2023-07-29T17:29:35;4.10;;;2.97;;
41167;SDS011;26906;45.658;9.272;2023-07-29T17:32:00;5.93;;;3.50;;
41167;SDS011;26906;45.658;9.272;2023-07-29T17:34:26;4.53;;;2.85;;
41167;SDS011;26906;45.658;9.272;2023-07-29T17:36:52;7.72;;;3.40;;
41167;SDS011;26906;45.658;9.272;2023-07-29T17:39:17;5.40;;;3.30;;
41167;SDS011;26906;45.658;9.272;2023-07-29T17:41:43;6.97;;;3.30;;
41167;SDS011;26906;45.658;9.272;2023-07-29T17:44:09;6.47;;;3.30;;
41167;SDS011;26906;45.658;9.272;2023-07-29T17:46:34;5.68;;;3.65;;
41167;SDS011;26906;45.658;9.272;2023-07-29T17:49:00;8.73;;;3.80;;
41167;SDS011;26906;45.658;9.272;2023-07-29T17:51:26;4.10;;;2.80;;
41167;SDS011;26906;45.658;9.272;2023-07-29T17:53:51;6.07;;;4.03;;
41167;SDS011;26906;45.658;9.272;2023-07-29T17:56:17;7.07;;;4.32;;
41167;SDS011;26906;45.658;9.272;2023-07-29T17:58:43;6.82;;;4.43;;
41167;SDS011;26906;45.658;9.272;2023-07-29T18:01:08;12.50;;;5.18;;
41167;SDS011;26906;45.658;9.272;2023-07-29T18:03:34;7.00;;;4.63;;
41167;SDS011;26906;45.658;9.272;2023-07-29T18:06:00;6.05;;;4.30;;
41167;SDS011;26906;45.658;9.272;2023-07-29T18:08:25;6.88;;;4.10;;
41167;SDS011;26906;45.658;9.272;2023-07-29T18:10:51;5.75;;;4.55;;
41167;SDS011;26906;45.658;9.272;2023-07-29T18:13:17;7.47;;;3.97;;
41167;SDS011;26906;45.658;9.272;2023-07-29T18:15:42;6.10;;;4.00;;
41167;SDS011;26906;45.658;9.272;2023-07-29T18:18:08;5.38;;;4.00;;
41167;SDS011;26906;45.658;9.272;2023-07-29T18:20:34;4.93;;;4.32;;
41167;SDS011;26906;45.658;9.272;2023-07-29T18:23:02;7.25;;;3.97;;
41167;SDS011;26906;45.658;9.272;2023-07-29T18:25:33;5.03;;;4.05;;
41167;SDS011;26906;45.658;9.272;2023-07-29T18:27:59;6.32;;;4.35;;
41167;SDS011;26906;45.658;9.272;2023-07-29T18:30:25;7.57;;;4.47;;
41167;SDS011;26906;45.658;9.272;2023-07-29T18:32:50;9.02;;;5.75;;
41167;SDS011;26906;45.658;9.272;2023-07-29T18:35:16;7.40;;;5.90;;
41167;SDS011;26906;45.658;9.272;2023-07-29T18:37:46;11.15;;;5.13;;
41167;SDS011;26906;45.658;9.272;2023-07-29T18:40:13;8.25;;;6.53;;
41167;SDS011;26906;45.658;9.272;2023-07-29T18:42:39;9.85;;;5.97;;
41167;SDS011;26906;45.658;9.272;2023-07-29T18:45:07;12.38;;;5.40;;
41167;SDS011;26906;45.658;9.272;2023-07-29T18:47:33;9.88;;;5.93;;
41167;SDS011;26906;45.658;9.272;2023-07-29T18:49:59;8.27;;;4.95;;
41167;SDS011;26906;45.658;9.272;2023-07-29T18:52:25;9.18;;;4.72;;
41167;SDS011;26906;45.658;9.272;2023-07-29T18:54:51;7.78;;;4.80;;
41167;SDS011;26906;45.658;9.272;2023-07-29T18:57:17;7.88;;;4.72;;
41167;SDS011;26906;45.658;9.272;2023-07-29T18:59:43;9.13;;;5.18;;
41167;SDS011;26906;45.658;9.272;2023-07-29T19:02:10;6.10;;;4.35;;
41167;SDS011;26906;45.658;9.272;2023-07-29T19:04:35;5.57;;;4.95;;
41167;SDS011;26906;45.658;9.272;2023-07-29T19:07:01;6.78;;;4.65;;
41167;SDS011;26906;45.658;9.272;2023-07-29T19:09:28;9.95;;;4.90;;
41167;SDS011;26906;45.658;9.272;2023-07-29T19:11:54;7.40;;;5.35;;
41167;SDS011;26906;45.658;9.272;2023-07-29T19:14:20;6.22;;;4.57;;
41167;SDS011;26906;45.658;9.272;2023-07-29T19:16:47;6.80;;;4.93;;
41167;SDS011;26906;45.658;9.272;2023-07-29T19:19:13;5.72;;;4.45;;
41167;SDS011;26906;45.658;9.272;2023-07-29T19:21:39;6.75;;;4.63;;
41167;SDS011;26906;45.658;9.272;2023-07-29T19:24:05;7.72;;;4.68;;
41167;SDS011;26906;45.658;9.272;2023-07-29T19:26:32;7.85;;;4.88;;
41167;SDS011;26906;45.658;9.272;2023-07-29T19:28:58;7.63;;;5.65;;
41167;SDS011;26906;45.658;9.272;2023-07-29T19:31:24;7.90;;;5.22;;
41167;SDS011;26906;45.658;9.272;2023-07-29T19:33:51;13.38;;;5.35;;
41167;SDS011;26906;45.658;9.272;2023-07-29T19:36:19;10.35;;;4.95;;
41167;SDS011;26906;45.658;9.272;2023-07-29T19:38:45;7.68;;;4.95;;
41167;SDS011;26906;45.658;9.272;2023-07-29T19:41:12;8.80;;;6.55;;
41167;SDS011;26906;45.658;9.272;2023-07-29T19:43:38;9.75;;;5.28;;
41167;SDS011;26906;45.658;9.272;2023-07-29T19:46:05;12.13;;;5.25;;
41167;SDS011;26906;45.658;9.272;2023-07-29T19:48:33;11.38;;;5.28;;
41167;SDS011;26906;45.658;9.272;2023-07-29T19:50:58;10.60;;;4.80;;
41167;SDS011;26906;45.658;9.272;2023-07-29T19:53:25;7.85;;;4.85;;
41167;SDS011;26906;45.658;9.272;2023-07-29T19:55:55;6.65;;;4.95;;
41167;SDS011;26906;45.658;9.272;2023-07-29T19:58:22;6.57;;;5.00;;
41167;SDS011;26906;45.658;9.272;2023-07-29T20:00:48;10.20;;;5.20;;
41167;SDS011;26906;45.658;9.272;2023-07-29T20:03:14;6.70;;;4.50;;
41167;SDS011;26906;45.658;9.272;2023-07-29T20:05:40;7.80;;;4.65;;
41167;SDS011;26906;45.658;9.272;2023-07-29T20:08:07;7.72;;;4.78;;
41167;SDS011;26906;45.658;9.272;2023-07-29T20:10:34;8.95;;;4.95;;
41167;SDS011;26906;45.658;9.272;2023-07-29T20:13:00;11.27;;;5.00;;
41167;SDS011;26906;45.658;9.272;2023-07-29T20:15:25;8.35;;;5.30;;
41167;SDS011;26906;45.658;9.272;2023-07-29T20:17:51;6.47;;;4.80;;
